Sudbrooke, United Kingdom
Current Conditions -  °F | °C
As of 11:50 PM on Saturday 25 Oct 2014 (Local Time) from EGXP Reporting Station
Overcast Overcast  
Wind Chill: 54°   Ceiling: 3700
Heat Index: 54°   Visibility: 6mi
Dew Point: 48°   Wind: 15mph
Humidity: 82%   Direction: 210°SSW
Pressure: 30"   Gusts: NA
Location:  53.27°N, 0.45°W
Report Text: EGXP 252250Z AUTO 21013KT 9999 // OVC037/// 12/09 Q1016
Loading
Personal Weather Stations






























Interactive Weather Map
Tropical Storm Tracking
New forecast layout! Learn more

10-Day Weather Forecast

Advertisements
Track Severe Weather on mobile